sensor_id;sensor_type;location;lat;lon;timestamp;pressure;altitude;pressure_sealevel;temperature;humidity
66524;BME280;53350;52.210;5.160;2023-01-10T00:00:05;101164.19;;;9.18;69.15
66524;BME280;53350;52.210;5.160;2023-01-10T00:02:32;101166.78;;;9.16;69.36
66524;BME280;53350;52.210;5.160;2023-01-10T00:04:58;101183.91;;;9.16;69.26
66524;BME280;53350;52.210;5.160;2023-01-10T00:07:25;101185.63;;;9.12;69.49
66524;BME280;53350;52.210;5.160;2023-01-10T00:09:51;101188.19;;;9.12;69.49
66524;BME280;53350;52.210;5.160;2023-01-10T00:12:18;101193.31;;;9.09;69.71
66524;BME280;53350;52.210;5.160;2023-01-10T00:15:04;101191.63;;;9.05;69.92
66524;BME280;53350;52.210;5.160;2023-01-10T00:17:30;101201.03;;;9.04;69.78
66524;BME280;53350;52.210;5.160;2023-01-10T00:19:57;101203.63;;;9.03;70.15
66524;BME280;53350;52.210;5.160;2023-01-10T00:22:23;101195.06;;;9.07;69.96
66524;BME280;53350;52.210;5.160;2023-01-10T00:24:51;101207.91;;;9.09;70.20
66524;BME280;53350;52.210;5.160;2023-01-10T00:27:17;101218.19;;;9.09;70.25
66524;BME280;53350;52.210;5.160;2023-01-10T00:29:46;101211.31;;;9.09;70.37
66524;BME280;53350;52.210;5.160;2023-01-10T00:32:16;101210.47;;;9.02;70.88
66524;BME280;53350;52.210;5.160;2023-01-10T00:34:42;101226.75;;;9.01;70.64
66524;BME280;53350;52.210;5.160;2023-01-10T00:37:09;101227.59;;;9.03;70.84
66524;BME280;53350;52.210;5.160;2023-01-10T00:39:35;101237.03;;;9.04;70.90
66524;BME280;53350;52.210;5.160;2023-01-10T00:42:02;101235.28;;;9.03;71.09
66524;BME280;53350;52.210;5.160;2023-01-10T00:44:46;101237.88;;;9.02;71.36
66524;BME280;53350;52.210;5.160;2023-01-10T00:47:13;101239.59;;;9.00;71.49
66524;BME280;53350;52.210;5.160;2023-01-10T00:49:40;101243.88;;;8.99;71.57
66524;BME280;53350;52.210;5.160;2023-01-10T00:52:07;101240.44;;;8.99;71.90
66524;BME280;53350;52.210;5.160;2023-01-10T00:54:33;101248.16;;;8.99;71.98
66524;BME280;53350;52.210;5.160;2023-01-10T00:57:00;101243.84;;;8.98;72.52
66524;BME280;53350;52.210;5.160;2023-01-10T00:59:26;101255.84;;;8.99;72.47
66524;BME280;53350;52.210;5.160;2023-01-10T01:01:53;101271.28;;;8.93;72.58
66524;BME280;53350;52.210;5.160;2023-01-10T01:04:20;101275.56;;;8.92;72.93
66524;BME280;53350;52.210;5.160;2023-01-10T01:06:48;101258.44;;;8.91;72.82
66524;BME280;53350;52.210;5.160;2023-01-10T01:09:15;101265.28;;;8.95;73.24
66524;BME280;53350;52.210;5.160;2023-01-10T01:11:41;101265.28;;;8.97;73.44
66524;BME280;53350;52.210;5.160;2023-01-10T01:14:08;101273.00;;;8.97;73.44
66524;BME280;53350;52.210;5.160;2023-01-10T01:16:34;101274.72;;;8.99;73.48
66524;BME280;53350;52.210;5.160;2023-01-10T01:19:01;101277.28;;;9.02;73.78
66524;BME280;53350;52.210;5.160;2023-01-10T01:21:27;101283.28;;;9.06;73.89
66524;BME280;53350;52.210;5.160;2023-01-10T01:23:55;101285.00;;;9.09;74.27
66524;BME280;53350;52.210;5.160;2023-01-10T01:26:22;101289.28;;;9.11;74.08
66524;BME280;53350;52.210;5.160;2023-01-10T01:28:49;101297.84;;;9.12;74.35
66524;BME280;53350;52.210;5.160;2023-01-10T01:31:15;101299.56;;;9.13;74.88
66524;BME280;53350;52.210;5.160;2023-01-10T01:33:42;101302.97;;;9.13;74.69
66524;BME280;53350;52.210;5.160;2023-01-10T01:36:10;101298.69;;;9.12;75.07
66524;BME280;53350;52.210;5.160;2023-01-10T01:38:37;101302.13;;;9.14;74.79
66524;BME280;53350;52.210;5.160;2023-01-10T01:41:05;101298.72;;;9.15;74.79
66524;BME280;53350;52.210;5.160;2023-01-10T01:43:59;101295.28;;;9.15;75.32
66524;BME280;53350;52.210;5.160;2023-01-10T01:46:27;101301.25;;;9.14;74.92
66524;BME280;53350;52.210;5.160;2023-01-10T01:48:53;101302.97;;;9.16;75.29
66524;BME280;53350;52.210;5.160;2023-01-10T01:51:23;101301.28;;;9.18;75.37
66524;BME280;53350;52.210;5.160;2023-01-10T01:53:54;101311.56;;;9.18;75.17
66524;BME280;53350;52.210;5.160;2023-01-10T01:56:26;101305.56;;;9.15;75.30
66524;BME280;53350;52.210;5.160;2023-01-10T01:58:57;101315.00;;;9.16;75.69
66524;BME280;53350;52.210;5.160;2023-01-10T02:01:25;101313.25;;;9.18;75.59
66524;BME280;53350;52.210;5.160;2023-01-10T02:03:56;101314.13;;;9.18;75.44
66524;BME280;53350;52.210;5.160;2023-01-10T02:06:24;101302.13;;;9.19;75.71
66524;BME280;53350;52.210;5.160;2023-01-10T02:08:54;101306.41;;;9.12;75.47
66524;BME280;53350;52.210;5.160;2023-01-10T02:11:25;101315.00;;;9.16;75.57
66524;BME280;53350;52.210;5.160;2023-01-10T02:13:52;101319.25;;;9.12;75.57
66524;BME280;53350;52.210;5.160;2023-01-10T02:16:19;101312.41;;;9.13;75.83
66524;BME280;53350;52.210;5.160;2023-01-10T02:18:46;101312.41;;;9.13;75.53
66524;BME280;53350;52.210;5.160;2023-01-10T02:21:29;101315.00;;;9.14;75.45
66524;BME280;53350;52.210;5.160;2023-01-10T02:27:11;101317.56;;;9.11;75.26
66524;BME280;53350;52.210;5.160;2023-01-10T02:32:47;101317.56;;;9.19;75.38
66524;BME280;53350;52.210;5.160;2023-01-10T02:35:25;101315.00;;;9.20;75.19
66524;BME280;53350;52.210;5.160;2023-01-10T02:37:59;101304.72;;;9.14;75.18
66524;BME280;53350;52.210;5.160;2023-01-10T02:40:41;101317.56;;;9.19;75.18
66524;BME280;53350;52.210;5.160;2023-01-10T02:43:13;101315.00;;;9.17;75.23
66524;BME280;53350;52.210;5.160;2023-01-10T02:45:43;101320.13;;;9.19;74.76
66524;BME280;53350;52.210;5.160;2023-01-10T02:48:15;101311.53;;;9.11;75.01
66524;BME280;53350;52.210;5.160;2023-01-10T02:50:55;101324.41;;;9.21;74.91
66524;BME280;53350;52.210;5.160;2023-01-10T02:53:26;101314.13;;;9.25;74.79
66524;BME280;53350;52.210;5.160;2023-01-10T02:56:22;101319.28;;;9.25;74.46
66524;BME280;53350;52.210;5.160;2023-01-10T02:59:05;101330.41;;;9.27;74.66
66524;BME280;53350;52.210;5.160;2023-01-10T03:01:43;101334.69;;;9.26;74.54
66524;BME280;53350;52.210;5.160;2023-01-10T03:04:22;101345.81;;;9.25;74.58
66524;BME280;53350;52.210;5.160;2023-01-10T03:06:55;101350.13;;;9.26;74.67
66524;BME280;53350;52.210;5.160;2023-01-10T03:09:28;101347.56;;;9.23;74.60
66524;BME280;53350;52.210;5.160;2023-01-10T03:12:08;101364.69;;;9.33;74.53
66524;BME280;53350;52.210;5.160;2023-01-10T03:14:37;101369.84;;;9.36;74.22
66524;BME280;53350;52.210;5.160;2023-01-10T03:17:06;101369.84;;;9.36;74.51
66524;BME280;53350;52.210;5.160;2023-01-10T03:19:40;101371.56;;;9.36;74.47
66524;BME280;53350;52.210;5.160;2023-01-10T03:22:10;101371.56;;;9.31;74.65
66524;BME280;53350;52.210;5.160;2023-01-10T03:24:39;101377.56;;;9.35;74.44
66524;BME280;53350;52.210;5.160;2023-01-10T03:27:09;101387.84;;;9.36;74.57
66524;BME280;53350;52.210;5.160;2023-01-10T03:29:44;101386.16;;;9.38;74.72
66524;BME280;53350;52.210;5.160;2023-01-10T03:32:13;101400.69;;;9.39;74.51
66524;BME280;53350;52.210;5.160;2023-01-10T03:34:41;101405.00;;;9.40;74.76
66524;BME280;53350;52.210;5.160;2023-01-10T03:37:09;101408.41;;;9.43;74.60
66524;BME280;53350;52.210;5.160;2023-01-10T03:39:43;101412.72;;;9.37;74.63
66524;BME280;53350;52.210;5.160;2023-01-10T03:42:17;101413.56;;;9.39;74.61
66524;BME280;53350;52.210;5.160;2023-01-10T03:44:53;101419.56;;;9.42;74.91
66524;BME280;53350;52.210;5.160;2023-01-10T03:47:26;101416.13;;;9.43;74.83
66524;BME280;53350;52.210;5.160;2023-01-10T03:49:58;101426.41;;;9.43;74.88
66524;BME280;53350;52.210;5.160;2023-01-10T03:52:26;101429.88;;;9.46;74.77
66524;BME280;53350;52.210;5.160;2023-01-10T03:54:54;101439.31;;;9.49;74.67
66524;BME280;53350;52.210;5.160;2023-01-10T03:57:23;101431.59;;;9.49;74.98
66524;BME280;53350;52.210;5.160;2023-01-10T03:59:52;101431.56;;;9.44;75.05
66524;BME280;53350;52.210;5.160;2023-01-10T04:02:19;101447.03;;;9.49;74.93
66524;BME280;53350;52.210;5.160;2023-01-10T04:04:46;101446.13;;;9.44;75.07
66524;BME280;53350;52.210;5.160;2023-01-10T04:07:13;101446.97;;;9.43;75.20
66524;BME280;53350;52.210;5.160;2023-01-10T04:09:40;101450.44;;;9.45;75.48
66524;BME280;53350;52.210;5.160;2023-01-10T04:12:06;101452.13;;;9.46;75.33
66524;BME280;53350;52.210;5.160;2023-01-10T04:14:33;101451.28;;;9.47;75.29
66524;BME280;53350;52.210;5.160;2023-01-10T04:16:59;101458.16;;;9.48;75.41
66524;BME280;53350;52.210;5.160;2023-01-10T04:19:25;101459.88;;;9.47;75.46
66524;BME280;53350;52.210;5.160;2023-01-10T04:21:52;101457.31;;;9.50;75.32
66524;BME280;53350;52.210;5.160;2023-01-10T04:24:19;101459.00;;;9.50;75.54
66524;BME280;53350;52.210;5.160;2023-01-10T04:26:46;101462.44;;;9.50;75.81
66524;BME280;53350;52.210;5.160;2023-01-10T04:29:12;101474.44;;;9.51;75.71
66524;BME280;53350;52.210;5.160;2023-01-10T04:31:40;101476.16;;;9.51;75.78
66524;BME280;53350;52.210;5.160;2023-01-10T04:34:07;101471.84;;;9.51;75.55
66524;BME280;53350;52.210;5.160;2023-01-10T04:36:34;101477.00;;;9.51;75.53
66524;BME280;53350;52.210;5.160;2023-01-10T04:39:00;101463.31;;;9.54;75.80
66524;BME280;53350;52.210;5.160;2023-01-10T04:41:28;101465.03;;;9.55;75.79
66524;BME280;53350;52.210;5.160;2023-01-10T04:43:54;101476.16;;;9.55;75.63
66524;BME280;53350;52.210;5.160;2023-01-10T04:46:21;101473.59;;;9.58;75.34
66524;BME280;53350;52.210;5.160;2023-01-10T04:48:47;101475.31;;;9.58;75.41
66524;BME280;53350;52.210;5.160;2023-01-10T04:51:14;101475.31;;;9.58;75.28
66524;BME280;53350;52.210;5.160;2023-01-10T04:53:40;101478.72;;;9.58;75.01
66524;BME280;53350;52.210;5.160;2023-01-10T04:56:08;101482.19;;;9.57;74.99
66524;BME280;53350;52.210;5.160;2023-01-10T04:58:37;101480.44;;;9.52;75.12
66524;BME280;53350;52.210;5.160;2023-01-10T05:01:08;101478.72;;;9.48;74.68
66524;BME280;53350;52.210;5.160;2023-01-10T05:03:35;101476.16;;;9.48;75.14
66524;BME280;53350;52.210;5.160;2023-01-10T05:06:01;101477.00;;;9.45;75.05
66524;BME280;53350;52.210;5.160;2023-01-10T05:08:28;101479.56;;;9.47;74.80
66524;BME280;53350;52.210;5.160;2023-01-10T05:10:55;101482.13;;;9.45;74.15
66524;BME280;53350;52.210;5.160;2023-01-10T05:13:21;101489.00;;;9.42;74.20
66524;BME280;53350;52.210;5.160;2023-01-10T05:15:49;101501.81;;;9.37;74.29
66524;BME280;53350;52.210;5.160;2023-01-10T05:18:15;101508.69;;;9.35;74.03
66524;BME280;53350;52.210;5.160;2023-01-10T05:20:42;101512.09;;;9.31;74.16
66524;BME280;53350;52.210;5.160;2023-01-10T05:23:08;101521.50;;;9.27;74.19
66524;BME280;53350;52.210;5.160;2023-01-10T05:25:34;101528.34;;;9.25;74.15
66524;BME280;53350;52.210;5.160;2023-01-10T05:28:01;101530.91;;;9.22;74.13
66524;BME280;53350;52.210;5.160;2023-01-10T05:30:27;101534.31;;;9.18;73.92
66524;BME280;53350;52.210;5.160;2023-01-10T05:32:55;101542.00;;;9.13;73.74
66524;BME280;53350;52.210;5.160;2023-01-10T05:35:21;101543.72;;;9.10;74.03
66524;BME280;53350;52.210;5.160;2023-01-10T05:37:48;101551.38;;;9.07;73.83
66524;BME280;53350;52.210;5.160;2023-01-10T05:40:14;101549.69;;;9.04;74.09
66524;BME280;53350;52.210;5.160;2023-01-10T05:42:40;101560.78;;;9.01;73.96
66524;BME280;53350;52.210;5.160;2023-01-10T05:45:08;101555.66;;;9.00;74.04
66524;BME280;53350;52.210;5.160;2023-01-10T05:47:34;101561.63;;;9.00;74.03
66524;BME280;53350;52.210;5.160;2023-01-10T05:50:02;101571.06;;;8.98;73.86
66524;BME280;53350;52.210;5.160;2023-01-10T05:52:29;101568.47;;;8.95;73.94
66524;BME280;53350;52.210;5.160;2023-01-10T05:54:55;101556.47;;;8.93;73.72
66524;BME280;53350;52.210;5.160;2023-01-10T05:57:21;101554.72;;;8.92;73.78
66524;BME280;53350;52.210;5.160;2023-01-10T05:59:48;101562.41;;;8.88;73.79
66524;BME280;53350;52.210;5.160;2023-01-10T06:02:15;101564.97;;;8.87;73.90
66524;BME280;53350;52.210;5.160;2023-01-10T06:04:41;101568.41;;;8.87;74.00
66524;BME280;53350;52.210;5.160;2023-01-10T06:07:09;101560.69;;;8.84;74.10
66524;BME280;53350;52.210;5.160;2023-01-10T06:09:36;101572.69;;;8.85;73.89
66524;BME280;53350;52.210;5.160;2023-01-10T06:12:02;101573.53;;;8.84;74.28
66524;BME280;53350;52.210;5.160;2023-01-10T06:14:29;101593.22;;;8.85;74.27
66524;BME280;53350;52.210;5.160;2023-01-10T06:16:55;101589.84;;;8.90;74.28
66524;BME280;53350;52.210;5.160;2023-01-10T06:19:22;101590.69;;;8.90;74.01
66524;BME280;53350;52.210;5.160;2023-01-10T06:21:48;101589.84;;;8.90;74.27
66524;BME280;53350;52.210;5.160;2023-01-10T06:24:16;101582.94;;;8.82;74.41
66524;BME280;53350;52.210;5.160;2023-01-10T06:26:43;101577.81;;;8.82;74.52
66524;BME280;53350;52.210;5.160;2023-01-10T06:29:09;101589.78;;;8.83;74.65
66524;BME280;53350;52.210;5.160;2023-01-10T06:31:35;101592.38;;;8.85;74.58
66524;BME280;53350;52.210;5.160;2023-01-10T06:34:02;101590.63;;;8.79;74.77
66524;BME280;53350;52.210;5.160;2023-01-10T06:36:28;101594.06;;;8.83;74.35
66524;BME280;53350;52.210;5.160;2023-01-10T06:38:54;101600.03;;;8.82;74.51
66524;BME280;53350;52.210;5.160;2023-01-10T06:41:22;101594.91;;;8.83;74.75
66524;BME280;53350;52.210;5.160;2023-01-10T06:43:49;101604.34;;;8.84;74.41
66524;BME280;53350;52.210;5.160;2023-01-10T06:46:17;101606.91;;;8.81;74.46
66524;BME280;53350;52.210;5.160;2023-01-10T06:48:44;101613.78;;;8.84;74.73
66524;BME280;53350;52.210;5.160;2023-01-10T06:51:12;101613.75;;;8.78;74.63
66524;BME280;53350;52.210;5.160;2023-01-10T06:53:38;101625.69;;;8.77;74.82
66524;BME280;53350;52.210;5.160;2023-01-10T06:56:06;101632.53;;;8.74;74.80
66524;BME280;53350;52.210;5.160;2023-01-10T06:58:35;101632.53;;;8.74;74.74
66524;BME280;53350;52.210;5.160;2023-01-10T07:01:03;101637.72;;;8.78;74.88
66524;BME280;53350;52.210;5.160;2023-01-10T07:03:29;101622.28;;;8.78;74.84
66524;BME280;53350;52.210;5.160;2023-01-10T07:05:59;101621.47;;;8.79;74.64
66524;BME280;53350;52.210;5.160;2023-01-10T07:08:26;101631.75;;;8.81;74.52
66524;BME280;53350;52.210;5.160;2023-01-10T07:10:52;101629.19;;;8.81;74.55
66524;BME280;53350;52.210;5.160;2023-01-10T07:13:19;101642.03;;;8.82;74.42
66524;BME280;53350;52.210;5.160;2023-01-10T07:15:46;101657.44;;;8.84;74.42
66524;BME280;53350;52.210;5.160;2023-01-10T07:18:13;101663.44;;;8.86;74.50
66524;BME280;53350;52.210;5.160;2023-01-10T07:20:39;101666.00;;;8.84;74.65
66524;BME280;53350;52.210;5.160;2023-01-10T07:23:06;101672.03;;;8.85;74.65
66524;BME280;53350;52.210;5.160;2023-01-10T07:25:32;101679.72;;;8.85;74.66
66524;BME280;53350;52.210;5.160;2023-01-10T07:27:58;101686.56;;;8.86;74.73
66524;BME280;53350;52.210;5.160;2023-01-10T07:30:25;101679.72;;;8.85;74.90
66524;BME280;53350;52.210;5.160;2023-01-10T07:32:53;101681.44;;;8.84;74.92
66524;BME280;53350;52.210;5.160;2023-01-10T07:35:20;101674.63;;;8.88;74.67
66524;BME280;53350;52.210;5.160;2023-01-10T07:37:46;101676.31;;;8.91;74.88
66524;BME280;53350;52.210;5.160;2023-01-10T07:40:13;101670.31;;;8.87;74.86
66524;BME280;53350;52.210;5.160;2023-01-10T07:42:39;101677.22;;;8.93;75.20
66524;BME280;53350;52.210;5.160;2023-01-10T07:45:06;101688.31;;;8.90;75.25
66524;BME280;53350;52.210;5.160;2023-01-10T07:47:33;101679.72;;;8.85;75.58
66524;BME280;53350;52.210;5.160;2023-01-10T07:50:01;101684.75;;;8.74;75.60
66524;BME280;53350;52.210;5.160;2023-01-10T07:52:28;101701.94;;;8.78;75.64
66524;BME280;53350;52.210;5.160;2023-01-10T07:54:54;101695.94;;;8.76;75.91
66524;BME280;53350;52.210;5.160;2023-01-10T07:57:20;101697.59;;;8.73;76.14
66524;BME280;53350;52.210;5.160;2023-01-10T07:59:47;101692.44;;;8.71;76.17
66524;BME280;53350;52.210;5.160;2023-01-10T08:02:13;101700.16;;;8.73;76.01
66524;BME280;53350;52.210;5.160;2023-01-10T08:04:40;101705.31;;;8.76;76.16
66524;BME280;53350;52.210;5.160;2023-01-10T08:07:07;101703.59;;;8.75;75.89
66524;BME280;53350;52.210;5.160;2023-01-10T08:09:34;101706.09;;;8.67;75.85
66524;BME280;53350;52.210;5.160;2023-01-10T08:12:00;101710.28;;;8.57;75.91
66524;BME280;53350;52.210;5.160;2023-01-10T08:14:27;101717.13;;;8.57;75.94
66524;BME280;53350;52.210;5.160;2023-01-10T08:16:53;101720.50;;;8.52;75.98
66524;BME280;53350;52.210;5.160;2023-01-10T08:19:19;101719.44;;;8.35;76.34
66524;BME280;53350;52.210;5.160;2023-01-10T08:21:46;101723.63;;;8.28;76.44
66524;BME280;53350;52.210;5.160;2023-01-10T08:24:13;101724.50;;;8.27;76.33
66524;BME280;53350;52.210;5.160;2023-01-10T08:26:40;101721.03;;;8.25;76.42
66524;BME280;53350;52.210;5.160;2023-01-10T08:29:06;101724.47;;;8.24;76.26
66524;BME280;53350;52.210;5.160;2023-01-10T08:31:33;101715.00;;;8.22;76.32
66524;BME280;53350;52.210;5.160;2023-01-10T08:33:59;101718.41;;;8.21;76.24
66524;BME280;53350;52.210;5.160;2023-01-10T08:36:25;101721.81;;;8.19;76.37
66524;BME280;53350;52.210;5.160;2023-01-10T08:38:53;101724.38;;;8.18;76.10
66524;BME280;53350;52.210;5.160;2023-01-10T08:41:21;101714.03;;;8.10;76.01
66524;BME280;53350;52.210;5.160;2023-01-10T08:43:48;101722.59;;;8.14;76.16
66524;BME280;53350;52.210;5.160;2023-01-10T08:46:15;101718.34;;;8.13;76.23
66524;BME280;53350;52.210;5.160;2023-01-10T08:48:41;101711.53;;;8.16;76.26
66524;BME280;53350;52.210;5.160;2023-01-10T08:51:08;101711.50;;;8.15;76.05
66524;BME280;53350;52.210;5.160;2023-01-10T08:53:35;101714.06;;;8.15;76.01
66524;BME280;53350;52.210;5.160;2023-01-10T08:56:03;101707.28;;;8.17;75.83
66524;BME280;53350;52.210;5.160;2023-01-10T08:58:31;101702.13;;;8.15;76.13
66524;BME280;53350;52.210;5.160;2023-01-10T09:00:58;101706.34;;;8.13;75.77
66524;BME280;53350;52.210;5.160;2023-01-10T09:03:24;101710.66;;;8.16;75.99
66524;BME280;53350;52.210;5.160;2023-01-10T09:05:51;101705.53;;;8.14;75.98
66524;BME280;53350;52.210;5.160;2023-01-10T09:08:17;101708.00;;;8.07;76.42
66524;BME280;53350;52.210;5.160;2023-01-10T09:10:44;101701.09;;;8.01;76.35
66524;BME280;53350;52.210;5.160;2023-01-10T09:13:10;101703.72;;;8.06;76.13
66524;BME280;53350;52.210;5.160;2023-01-10T09:15:38;101701.09;;;8.03;76.38
66524;BME280;53350;52.210;5.160;2023-01-10T09:18:06;101706.28;;;8.07;76.43
66524;BME280;53350;52.210;5.160;2023-01-10T09:20:33;101706.38;;;8.16;76.23
66524;BME280;53350;52.210;5.160;2023-01-10T09:23:04;101700.44;;;8.21;76.24
66524;BME280;53350;52.210;5.160;2023-01-10T09:25:30;101698.84;;;8.30;76.06
66524;BME280;53350;52.210;5.160;2023-01-10T09:27:57;101702.03;;;8.09;76.29
66524;BME280;53350;52.210;5.160;2023-01-10T09:30:24;101688.44;;;8.19;76.17
66524;BME280;53350;52.210;5.160;2023-01-10T09:32:53;101700.38;;;8.14;76.07
66524;BME280;53350;52.210;5.160;2023-01-10T09:35:19;101690.16;;;8.19;76.27
66524;BME280;53350;52.210;5.160;2023-01-10T09:37:46;101693.56;;;8.18;76.40
66524;BME280;53350;52.210;5.160;2023-01-10T09:40:13;101684.97;;;8.13;76.31
66524;BME280;53350;52.210;5.160;2023-01-10T09:42:57;101685.88;;;8.18;76.18
66524;BME280;53350;52.210;5.160;2023-01-10T09:45:32;101687.53;;;8.13;76.50
66524;BME280;53350;52.210;5.160;2023-01-10T09:48:05;101689.28;;;8.15;76.21
66524;BME280;53350;52.210;5.160;2023-01-10T09:50:38;101693.53;;;8.15;76.55
66524;BME280;53350;52.210;5.160;2023-01-10T09:53:11;101696.22;;;8.24;76.00
66524;BME280;53350;52.210;5.160;2023-01-10T09:55:40;101701.38;;;8.26;76.11
66524;BME280;53350;52.210;5.160;2023-01-10T09:58:11;101698.72;;;8.21;76.16
66524;BME280;53350;52.210;5.160;2023-01-10T10:00:41;101691.94;;;8.23;75.27
66524;BME280;53350;52.210;5.160;2023-01-10T10:03:21;101691.09;;;8.23;75.49
66524;BME280;53350;52.210;5.160;2023-01-10T10:05:49;101691.13;;;8.27;75.50
66524;BME280;53350;52.210;5.160;2023-01-10T10:08:17;101689.31;;;8.18;75.85
66524;BME280;53350;52.210;5.160;2023-01-10T10:10:50;101679.94;;;8.22;76.16
66524;BME280;53350;52.210;5.160;2023-01-10T10:13:23;101674.72;;;8.13;76.21
66524;BME280;53350;52.210;5.160;2023-01-10T10:15:57;101672.91;;;8.06;76.74
66524;BME280;53350;52.210;5.160;2023-01-10T10:18:44;101691.75;;;8.08;76.73
66524;BME280;53350;52.210;5.160;2023-01-10T10:21:18;101684.94;;;8.10;76.35
66524;BME280;53350;52.210;5.160;2023-01-10T10:24:16;101695.00;;;7.94;76.57
66524;BME280;53350;52.210;5.160;2023-01-10T10:26:51;101695.06;;;7.99;76.48
66524;BME280;53350;52.210;5.160;2023-01-10T10:29:38;101674.56;;;8.02;76.27
66524;BME280;53350;52.210;5.160;2023-01-10T10:32:21;101684.84;;;8.04;76.21
66524;BME280;53350;52.210;5.160;2023-01-10T10:34:52;101686.66;;;8.11;76.50
66524;BME280;53350;52.210;5.160;2023-01-10T10:37:25;101679.78;;;8.07;76.16
66524;BME280;53350;52.210;5.160;2023-01-10T10:39:59;101677.22;;;8.07;76.82
66524;BME280;53350;52.210;5.160;2023-01-10T10:42:28;101672.13;;;8.11;76.23
66524;BME280;53350;52.210;5.160;2023-01-10T10:44:58;101655.00;;;8.09;76.59
66524;BME280;53350;52.210;5.160;2023-01-10T10:47:28;101653.19;;;8.01;76.05
66524;BME280;53350;52.210;5.160;2023-01-10T10:50:06;101655.78;;;8.05;76.05
66524;BME280;53350;52.210;5.160;2023-01-10T10:52:36;101653.28;;;8.09;76.10
66524;BME280;53350;52.210;5.160;2023-01-10T10:55:04;101652.28;;;7.98;77.60
66524;BME280;53350;52.210;5.160;2023-01-10T10:57:33;101647.91;;;7.89;76.06
66524;BME280;53350;52.210;5.160;2023-01-10T11:00:04;101648.06;;;8.03;76.41
66524;BME280;53350;52.210;5.160;2023-01-10T11:02:38;101645.41;;;7.94;76.28
66524;BME280;53350;52.210;5.160;2023-01-10T11:05:14;101643.78;;;8.04;76.34
66524;BME280;53350;52.210;5.160;2023-01-10T11:07:43;101628.47;;;8.07;75.92
66524;BME280;53350;52.210;5.160;2023-01-10T11:10:13;101623.25;;;8.00;75.20
66524;BME280;53350;52.210;5.160;2023-01-10T11:12:54;101625.91;;;8.08;75.93
66524;BME280;53350;52.210;5.160;2023-01-10T11:15:43;101626.63;;;7.98;75.68
66524;BME280;53350;52.210;5.160;2023-01-10T11:18:12;101627.63;;;8.11;76.47
66524;BME280;53350;52.210;5.160;2023-01-10T11:20:50;101625.97;;;8.16;75.92
66524;BME280;53350;52.210;5.160;2023-01-10T11:23:22;101626.75;;;8.09;75.05
66524;BME280;53350;52.210;5.160;2023-01-10T11:25:49;101618.13;;;8.02;75.34
66524;BME280;53350;52.210;5.160;2023-01-10T11:28:24;101605.38;;;8.08;75.29
66524;BME280;53350;52.210;5.160;2023-01-10T11:30:51;101604.50;;;8.08;75.72
66524;BME280;53350;52.210;5.160;2023-01-10T11:33:21;101601.84;;;7.98;75.74
66524;BME280;53350;52.210;5.160;2023-01-10T11:36:00;101595.91;;;8.01;75.94
66524;BME280;53350;52.210;5.160;2023-01-10T11:38:27;101600.94;;;7.93;75.91
66524;BME280;53350;52.210;5.160;2023-01-10T11:40:58;101591.56;;;7.95;76.19
66524;BME280;53350;52.210;5.160;2023-01-10T11:43:32;101583.97;;;8.06;76.09
66524;BME280;53350;52.210;5.160;2023-01-10T11:46:00;101595.91;;;8.01;75.78
66524;BME280;53350;52.210;5.160;2023-01-10T11:48:40;101586.56;;;8.11;75.52
66524;BME280;53350;52.210;5.160;2023-01-10T11:51:18;101584.00;;;8.09;75.44
66524;BME280;53350;52.210;5.160;2023-01-10T11:53:45;101578.03;;;8.12;75.15
66524;BME280;53350;52.210;5.160;2023-01-10T11:56:21;101570.31;;;8.09;75.54
66524;BME280;53350;52.210;5.160;2023-01-10T11:58:49;101572.03;;;8.08;75.36
66524;BME280;53350;52.210;5.160;2023-01-10T12:01:33;101570.38;;;8.15;75.28
66524;BME280;53350;52.210;5.160;2023-01-10T12:04:04;101567.78;;;8.15;75.54
66524;BME280;53350;52.210;5.160;2023-01-10T12:06:32;101557.56;;;8.18;75.33
66524;BME280;53350;52.210;5.160;2023-01-10T12:08:59;101552.38;;;8.10;75.45
66524;BME280;53350;52.210;5.160;2023-01-10T12:11:28;101555.00;;;8.18;75.34
66524;BME280;53350;52.210;5.160;2023-01-10T12:13:57;101544.72;;;8.16;75.33
66524;BME280;53350;52.210;5.160;2023-01-10T12:16:25;101539.50;;;8.07;76.10
66524;BME280;53350;52.210;5.160;2023-01-10T12:18:53;101537.91;;;8.17;75.76
66524;BME280;53350;52.210;5.160;2023-01-10T12:21:27;101532.84;;;8.26;75.57
66524;BME280;53350;52.210;5.160;2023-01-10T12:23:59;101517.44;;;8.28;75.48
66524;BME280;53350;52.210;5.160;2023-01-10T12:26:29;101517.44;;;8.26;76.33
66524;BME280;53350;52.210;5.160;2023-01-10T12:29:00;101504.56;;;8.23;76.10
66524;BME280;53350;52.210;5.160;2023-01-10T12:31:31;101502.06;;;8.29;75.99
66524;BME280;53350;52.210;5.160;2023-01-10T12:34:03;101507.19;;;8.28;75.59
66524;BME280;53350;52.210;5.160;2023-01-10T12:36:38;101509.75;;;8.31;75.52
66524;BME280;53350;52.210;5.160;2023-01-10T12:39:13;101484.03;;;8.20;75.54
66524;BME280;53350;52.210;5.160;2023-01-10T12:41:58;101490.13;;;8.33;75.67
66524;BME280;53350;52.210;5.160;2023-01-10T12:44:49;101491.94;;;8.45;75.16
66524;BME280;53350;52.210;5.160;2023-01-10T12:47:28;101485.13;;;8.51;74.63
66524;BME280;53350;52.210;5.160;2023-01-10T12:49:59;101487.75;;;8.56;74.68
66524;BME280;53350;52.210;5.160;2023-01-10T12:52:32;101481.72;;;8.57;74.72
66524;BME280;53350;52.210;5.160;2023-01-10T12:55:00;101476.59;;;8.57;74.93
66524;BME280;53350;52.210;5.160;2023-01-10T12:57:30;101472.34;;;8.61;74.97
66524;BME280;53350;52.210;5.160;2023-01-10T13:00:00;101484.31;;;8.60;74.69
66524;BME280;53350;52.210;5.160;2023-01-10T13:02:41;101464.66;;;8.61;75.02
66524;BME280;53350;52.210;5.160;2023-01-10T13:05:15;101435.50;;;8.57;74.68
66524;BME280;53350;52.210;5.160;2023-01-10T13:07:43;101446.66;;;8.59;74.57
66524;BME280;53350;52.210;5.160;2023-01-10T13:10:14;101432.13;;;8.67;74.38
66524;BME280;53350;52.210;5.160;2023-01-10T13:12:44;101424.41;;;8.60;74.61
66524;BME280;53350;52.210;5.160;2023-01-10T13:15:16;101418.44;;;8.65;74.31
66524;BME280;53350;52.210;5.160;2023-01-10T13:17:47;101410.75;;;8.68;74.29